Time;durP1;ratioP1;P1;durP2;ratioP2;P2;SDS_P1;SDS_P2;PMS_P1;PMS_P2;Temp;Humidity;BMP_temperature;BMP_pressure;BME280_temperature;BME280_humidity;BME280_pressure;Samples;Min_cycle;Max_cycle;Signal;HPM_P1;HPM_P2
2022/11/30 00:01:30;;;;;;;95.80;44.03;;;;;;;-0.96;100.00;101263.78;5096711;28;20027;-78
2022/11/30 00:03:57;;;;;;;99.97;43.95;;;;;;;-1.00;100.00;101269.38;5095082;28;20385;-79
2022/11/30 00:06:24;;;;;;;103.93;44.05;;;;;;;-0.97;100.00;101279.00;5078696;28;20498;-79
2022/11/30 00:08:55;;;;;;;98.38;43.78;;;;;;;-1.00;100.00;101274.16;5079034;28;20052;-79
2022/11/30 00:11:22;;;;;;;93.40;44.25;;;;;;;-1.01;100.00;101267.75;5073204;28;20400;-79
2022/11/30 00:13:49;;;;;;;99.72;43.67;;;;;;;-1.04;100.00;101274.16;5095140;28;20077;-79
2022/11/30 00:16:27;;;;;;;105.18;44.33;;;;;;;-1.04;100.00;101267.72;5078064;28;20040;-79
2022/11/30 00:18:53;;;;;;;96.32;42.63;;;;;;;-1.10;100.00;101269.28;5078066;28;20536;-79
2022/11/30 00:21:19;;;;;;;109.70;45.33;;;;;;;-1.13;100.00;101277.31;5092541;28;20031;-80
2022/11/30 00:23:53;;;;;;;116.82;46.42;;;;;;;-1.13;100.00;101282.91;5096024;28;20028;-79
2022/11/30 00:26:23;;;;;;;100.38;44.50;;;;;;;-1.17;100.00;101279.28;5096418;28;20046;-79
2022/11/30 00:28:50;;;;;;;108.28;45.78;;;;;;;-1.19;100.00;101281.66;5096770;28;20031;-79
2022/11/30 00:31:17;;;;;;;110.78;44.80;;;;;;;-1.19;100.00;101278.03;5095265;28;20039;-78
2022/11/30 00:33:44;;;;;;;106.18;44.28;;;;;;;-1.22;100.00;101273.22;5095256;28;20038;-79
2022/11/30 00:36:11;;;;;;;104.82;43.92;;;;;;;-1.24;100.00;101284.00;5077921;28;20035;-79
2022/11/30 00:38:46;;;;;;;102.72;45.05;;;;;;;-1.23;100.00;101286.44;5096545;28;20024;-79
2022/11/30 00:41:24;;;;;;;104.75;45.10;;;;;;;-1.26;100.00;101281.59;5096373;28;20027;-78
2022/11/30 00:43:50;;;;;;;101.80;44.15;;;;;;;-1.40;100.00;101269.44;5096013;28;20035;-80
2022/11/30 00:46:16;;;;;;;102.80;43.92;;;;;;;-1.38;100.00;101267.88;5077882;28;20042;-80
2022/11/30 00:48:41;;;;;;;101.20;43.50;;;;;;;-1.26;100.00;101284.38;5095652;28;20400;-80
2022/11/30 00:51:09;;;;;;;104.85;44.55;;;;;;;-1.28;100.00;101286.78;5094411;28;20508;-80
2022/11/30 00:53:35;;;;;;;104.95;45.90;;;;;;;-1.30;100.00;101288.34;5077485;28;20052;-80
2022/11/30 00:56:03;;;;;;;96.93;42.53;;;;;;;-1.27;100.00;101294.00;5060546;28;20089;-80
2022/11/30 00:58:29;;;;;;;112.15;46.42;;;;;;;-1.29;100.00;101296.38;5077528;28;20523;-80
2022/11/30 01:00:56;;;;;;;108.35;46.10;;;;;;;-1.28;100.00;101294.38;5095508;28;20024;-79
2022/11/30 01:03:22;;;;;;;109.45;45.80;;;;;;;-1.32;100.00;101285.16;5093918;28;20032;-79
2022/11/30 01:05:47;;;;;;;113.55;49.17;;;;;;;-1.32;100.00;101287.97;5093592;28;20040;-80
2022/11/30 01:08:16;;;;;;;113.80;44.45;;;;;;;-1.34;100.00;101293.94;5093329;28;20435;-80
2022/11/30 01:10:52;;;;;;;106.97;46.58;;;;;;;-1.33;100.00;101300.34;5095651;28;20081;-79
2022/11/30 01:13:22;;;;;;;113.18;48.85;;;;;;;-1.35;100.00;101297.94;5078422;28;20448;-79
2022/11/30 01:15:48;;;;;;;111.65;47.53;;;;;;;-1.36;100.00;101293.50;5096362;28;20028;-79
2022/11/30 01:18:15;;;;;;;120.07;46.80;;;;;;;-1.38;100.00;101295.09;5095959;28;20100;-79
2022/11/30 01:21:04;;;;;;;116.82;48.13;;;;;;;-1.37;100.00;101300.34;5096557;28;20086;-78
2022/11/30 01:23:32;;;;;;;116.78;47.83;;;;;;;-1.41;100.00;101291.09;5095319;28;20072;-79
2022/11/30 01:25:58;;;;;;;99.53;44.38;;;;;;;-1.42;100.00;101295.09;5096411;28;20542;-79
2022/11/30 01:28:24;;;;;;;112.00;47.60;;;;;;;-1.42;100.00;101297.06;5095834;28;20028;-79
2022/11/30 01:31:09;;;;;;;110.45;47.50;;;;;;;-1.43;100.00;101298.25;5096936;28;20362;-79
2022/11/30 01:33:35;;;;;;;96.78;43.40;;;;;;;-1.43;100.00;101301.06;5097119;28;20032;-79
2022/11/30 01:36:12;;;;;;;107.78;47.22;;;;;;;-1.45;100.00;101303.44;5079533;28;20042;-79
2022/11/30 01:38:41;;;;;;;124.05;47.75;;;;;;;-1.47;100.00;101311.44;5096534;28;20097;-79
2022/11/30 01:41:10;;;;;;;116.75;50.15;;;;;;;-1.47;100.00;101306.66;5079373;28;20361;-78
2022/11/30 01:43:53;;;;;;;105.05;46.63;;;;;;;-1.45;100.00;101309.84;5095362;28;20032;-79
2022/11/30 01:46:49;;;;;;;100.13;44.05;;;;;;;-1.47;100.00;101309.44;5096597;28;20103;-79
2022/11/30 01:49:36;;;;;;;106.22;45.35;;;;;;;-1.48;100.00;101309.81;5095686;28;20377;-78
2022/11/30 01:52:13;;;;;;;110.05;47.42;;;;;;;-1.44;100.00;101305.06;5094786;28;20028;-79
2022/11/30 01:54:51;;;;;;;109.55;43.83;;;;;;;-1.41;100.00;101304.28;5095166;28;20027;-79
2022/11/30 01:57:21;;;;;;;117.28;49.35;;;;;;;-1.34;100.00;101316.38;5076343;28;20039;-79
2022/11/30 01:59:49;;;;;;;107.55;46.40;;;;;;;-1.24;100.00;101326.88;5093505;28;20047;-78
2022/11/30 02:02:16;;;;;;;110.55;45.33;;;;;;;-1.21;100.00;101320.47;5091865;28;20035;-79
2022/11/30 02:04:42;;;;;;;110.68;45.47;;;;;;;-1.17;100.00;101321.34;5091951;28;20031;-80
2022/11/30 02:07:07;;;;;;;113.13;49.30;;;;;;;-1.11;100.00;101318.16;5096477;28;20032;-78
2022/11/30 02:09:39;;;;;;;111.30;44.78;;;;;;;-1.09;100.00;101321.38;5096142;28;20040;-79
2022/11/30 02:12:07;;;;;;;107.15;45.35;;;;;;;-1.07;100.00;101322.63;5096332;28;20049;-78
2022/11/30 02:14:50;;;;;;;120.30;48.47;;;;;;;-1.04;100.00;101313.41;5094792;28;20031;-77
2022/11/30 02:17:34;;;;;;;118.50;49.67;;;;;;;-1.03;100.00;101319.84;5096743;28;20491;-78
2022/11/30 02:20:29;;;;;;;125.78;48.92;;;;;;;-1.09;100.00;101322.19;5112171;28;20020;-77
2022/11/30 02:23:13;;;;;;;124.38;47.95;;;;;;;-1.06;100.00;101326.22;5076036;28;20051;-77
2022/11/30 02:25:44;;;;;;;133.13;47.67;;;;;;;-0.99;100.00;101320.66;5108137;28;20087;-77
2022/11/30 02:28:52;;;;;;;115.15;46.80;;;;;;;-1.01;100.00;101314.66;5099854;28;20032;-76
2022/11/30 02:31:22;;;;;;;114.45;46.13;;;;;;;-1.04;100.00;101296.59;5083916;28;20048;-78
2022/11/30 02:33:49;;;;;;;125.03;51.00;;;;;;;-0.93;100.00;101314.31;5095410;28;20354;-78
2022/11/30 02:36:15;;;;;;;134.00;48.90;;;;;;;-0.91;100.00;101311.09;5090570;28;20063;-77
2022/11/30 02:38:41;;;;;;;130.65;47.72;;;;;;;-0.90;100.00;101315.50;5091407;28;20051;-77
2022/11/30 02:41:06;;;;;;;125.20;47.90;;;;;;;-0.88;100.00;101321.56;5091757;28;20035;-78
2022/11/30 02:43:32;;;;;;;127.75;48.25;;;;;;;-0.90;100.00;101321.13;5092213;28;20058;-77
2022/11/30 02:46:18;;;;;;;144.18;51.58;;;;;;;-0.87;100.00;101337.19;5093313;28;20398;-77
2022/11/30 02:48:56;;;;;;;144.70;49.65;;;;;;;-0.92;100.00;101329.94;5073105;28;20031;-78
2022/11/30 02:51:24;;;;;;;140.55;50.53;;;;;;;-1.00;100.00;101330.25;5090073;28;20028;-77
2022/11/30 02:53:49;;;;;;;142.10;50.55;;;;;;;-1.06;100.00;101324.19;5089959;28;20032;-77
2022/11/30 02:56:16;;;;;;;133.85;50.15;;;;;;;-1.00;100.00;101335.88;5089958;28;20032;-79
2022/11/30 02:58:41;;;;;;;137.45;50.30;;;;;;;-1.01;100.00;101337.09;5089741;28;20024;-77
2022/11/30 03:01:07;;;;;;;146.43;52.60;;;;;;;-0.99;100.00;101329.06;5091375;28;20483;-78
2022/11/30 03:03:32;;;;;;;140.02;48.83;;;;;;;-1.01;100.00;101331.47;5092043;28;20035;-78
2022/11/30 03:05:58;;;;;;;149.13;50.55;;;;;;;-1.01;100.00;101326.66;5092394;28;20028;-78
2022/11/30 03:08:23;;;;;;;131.18;47.10;;;;;;;-1.05;100.00;101330.63;5093091;28;20434;-78
2022/11/30 03:10:48;;;;;;;136.23;50.83;;;;;;;-1.05;100.00;101339.03;5092571;28;20028;-77
2022/11/30 03:13:14;;;;;;;144.23;51.20;;;;;;;-1.04;100.00;101337.84;5091283;28;20461;-77
2022/11/30 03:15:39;;;;;;;157.55;52.35;;;;;;;-1.02;100.00;101333.47;5091087;28;20532;-77
2022/11/30 03:18:05;;;;;;;153.45;50.50;;;;;;;-0.98;100.00;101339.91;5091188;28;20534;-78
2022/11/30 03:20:30;;;;;;;143.40;50.60;;;;;;;-0.92;100.00;101343.16;5091357;28;20380;-78
2022/11/30 03:23:00;;;;;;;149.13;48.40;;;;;;;-0.90;100.00;101349.97;5091023;28;20429;-78
2022/11/30 03:25:26;;;;;;;139.60;49.28;;;;;;;-0.89;100.00;101360.00;5091183;28;20035;-77
2022/11/30 03:27:52;;;;;;;149.77;48.78;;;;;;;-0.89;100.00;101353.59;5089747;28;20028;-77
2022/11/30 03:30:17;;;;;;;149.85;51.47;;;;;;;-0.87;100.00;101354.84;5090670;28;20103;-77
2022/11/30 03:32:42;;;;;;;156.65;52.28;;;;;;;-0.81;100.00;101361.66;5091244;28;20039;-77
2022/11/30 03:35:08;;;;;;;146.68;47.50;;;;;;;-0.82;100.00;101367.69;5092204;28;20027;-78
2022/11/30 03:37:33;;;;;;;145.90;47.80;;;;;;;-0.83;100.00;101358.47;5095171;28;20115;-78
2022/11/30 03:39:59;;;;;;;144.38;49.28;;;;;;;-0.88;100.00;101358.00;5095541;28;20430;-78
2022/11/30 03:42:24;;;;;;;156.20;48.60;;;;;;;-0.84;100.00;101373.69;5077853;28;20067;-78
2022/11/30 03:44:49;;;;;;;158.85;49.05;;;;;;;-0.86;100.00;101369.63;5097073;28;20032;-78
2022/11/30 03:47:15;;;;;;;144.00;48.40;;;;;;;-0.86;100.00;101376.06;5096088;28;20103;-78
2022/11/30 03:49:40;;;;;;;155.57;45.90;;;;;;;-0.86;100.00;101369.63;5096614;28;20461;-79
2022/11/30 03:52:05;;;;;;;133.70;45.00;;;;;;;-0.90;100.00;101380.03;5096706;28;20028;-78
2022/11/30 03:54:31;;;;;;;158.02;50.15;;;;;;;-0.85;100.00;101379.66;5097166;28;20426;-78
2022/11/30 03:56:56;;;;;;;148.40;47.25;;;;;;;-0.82;100.00;101387.31;5100831;28;20028;-77
2022/11/30 03:59:21;;;;;;;159.38;48.55;;;;;;;-0.77;100.00;101395.38;5099086;28;20036;-78
2022/11/30 04:01:47;;;;;;;153.32;47.50;;;;;;;-0.73;100.00;101387.78;5100154;28;20028;-78
2022/11/30 04:04:12;;;;;;;155.63;51.33;;;;;;;-0.78;100.00;101391.78;5097499;28;20035;-78
2022/11/30 04:06:39;;;;;;;152.18;46.88;;;;;;;-0.78;100.00;101397.38;5095052;28;20032;-78
2022/11/30 04:09:04;;;;;;;145.57;45.78;;;;;;;-0.76;100.00;101399.78;5096062;28;20048;-77
2022/11/30 04:11:30;;;;;;;158.77;49.20;;;;;;;-0.77;100.00;101401.00;5096211;28;20054;-78
2022/11/30 04:13:55;;;;;;;160.75;46.30;;;;;;;-0.77;100.00;101396.16;5096310;28;20423;-78
2022/11/30 04:16:20;;;;;;;154.57;46.70;;;;;;;-0.77;100.00;101398.97;5078271;28;20032;-78
2022/11/30 04:18:46;;;;;;;161.57;46.40;;;;;;;-0.76;100.00;101400.59;5096095;28;20066;-79
2022/11/30 04:21:11;;;;;;;167.38;45.53;;;;;;;-0.78;100.00;101405.81;5096544;28;20027;-79
2022/11/30 04:23:38;;;;;;;162.93;48.47;;;;;;;-0.88;100.00;101391.69;5096563;28;20525;-78
2022/11/30 04:26:06;;;;;;;139.57;44.67;;;;;;;-0.84;100.00;101393.31;5096004;28;20390;-77
2022/11/30 04:28:32;;;;;;;159.10;48.47;;;;;;;-0.93;100.00;101387.25;5095858;28;20036;-78
2022/11/30 04:30:59;;;;;;;150.73;46.63;;;;;;;-0.87;100.00;101402.53;5096133;28;20055;-78
2022/11/30 04:33:24;;;;;;;150.35;46.45;;;;;;;-0.82;100.00;101393.75;5095773;28;20476;-78
2022/11/30 04:35:58;;;;;;;165.15;47.42;;;;;;;-0.74;100.00;101397.41;5096100;28;20020;-77
2022/11/30 04:38:24;;;;;;;166.65;47.95;;;;;;;-0.70;100.00;101399.03;5096162;28;20028;-77
2022/11/30 04:40:50;;;;;;;164.93;45.95;;;;;;;-0.66;100.00;101403.88;5095670;28;20020;-78
2022/11/30 04:43:15;;;;;;;139.90;44.97;;;;;;;-0.62;100.00;101399.91;5094747;28;20422;-79
2022/11/30 04:45:42;;;;;;;142.73;44.72;;;;;;;-0.59;100.00;101407.53;5060970;28;20085;-76
2022/11/30 04:48:07;;;;;;;165.45;49.53;;;;;;;-0.61;100.00;101409.91;5093605;28;20067;-78
2022/11/30 04:50:33;;;;;;;155.75;45.80;;;;;;;-0.58;100.00;101399.94;5095718;28;20432;-78
2022/11/30 04:52:59;;;;;;;166.63;46.17;;;;;;;-0.53;100.00;101405.19;5095651;28;20024;-78
2022/11/30 04:55:24;;;;;;;157.75;46.58;;;;;;;-0.57;100.00;101410.75;5094473;28;20077;-78
2022/11/30 04:57:49;;;;;;;163.88;48.72;;;;;;;-0.58;100.00;101406.34;5095768;28;20469;-78
2022/11/30 05:00:16;;;;;;;153.65;46.08;;;;;;;-0.55;100.00;101399.13;5095712;28;20022;-79
2022/11/30 05:02:42;;;;;;;142.68;42.83;;;;;;;-0.55;100.00;101404.75;5095624;28;20027;-79
2022/11/30 05:05:08;;;;;;;150.48;47.25;;;;;;;-0.57;100.00;101401.56;5094203;28;20023;-78
2022/11/30 05:07:33;;;;;;;155.43;46.30;;;;;;;-0.54;100.00;101412.00;5095407;28;20376;-78
2022/11/30 05:09:58;;;;;;;145.80;45.20;;;;;;;-0.60;100.00;101414.34;5092250;28;20044;-77
2022/11/30 05:12:24;;;;;;;158.73;45.00;;;;;;;-0.62;100.00;101408.34;5092900;28;20107;-78
2022/11/30 05:14:49;;;;;;;151.18;43.15;;;;;;;-0.62;100.00;101411.16;5092974;28;20101;-77
2022/11/30 05:17:14;;;;;;;139.40;48.15;;;;;;;-0.66;100.00;101401.06;5093076;28;20020;-79
2022/11/30 05:19:40;;;;;;;148.15;43.72;;;;;;;-0.62;100.00;101411.16;5092713;28;20461;-77
2022/11/30 05:22:05;;;;;;;136.60;44.80;;;;;;;-0.57;100.00;101415.59;5093459;28;20020;-78
2022/11/30 05:24:31;;;;;;;156.80;43.55;;;;;;;-0.57;100.00;101407.94;5093526;28;20024;-77
2022/11/30 05:26:56;;;;;;;146.65;46.17;;;;;;;-0.54;100.00;101414.78;5075858;28;20051;-77
2022/11/30 05:29:21;;;;;;;148.98;44.67;;;;;;;-0.54;100.00;101415.59;5092154;28;20020;-77
2022/11/30 05:31:47;;;;;;;135.38;40.10;;;;;;;-0.53;100.00;101420.03;5091652;28;20026;-77
2022/11/30 05:34:13;;;;;;;160.80;49.10;;;;;;;-0.57;100.00;101418.41;5090589;28;20020;-77
2022/11/30 05:36:38;;;;;;;141.05;43.78;;;;;;;-0.54;100.00;101431.63;5092396;28;20023;-78
2022/11/30 05:39:04;;;;;;;146.13;43.80;;;;;;;-0.53;100.00;101427.63;5092601;28;20069;-78
2022/11/30 05:41:30;;;;;;;151.25;44.05;;;;;;;-0.55;100.00;101428.03;5091159;28;20028;-78
2022/11/30 05:43:56;;;;;;;143.57;42.22;;;;;;;-0.54;100.00;101426.03;5095125;28;20495;-78
2022/11/30 05:46:23;;;;;;;132.20;43.15;;;;;;;-0.56;100.00;101425.59;5095231;28;20024;-79
2022/11/30 05:48:48;;;;;;;138.70;44.90;;;;;;;-0.52;100.00;101418.03;5093095;28;20039;-78
2022/11/30 05:51:16;;;;;;;159.80;44.00;;;;;;;-0.44;100.00;101426.09;5093022;28;20020;-79
2022/11/30 05:53:45;;;;;;;138.45;41.30;;;;;;;-0.41;100.00;101435.72;5093289;28;20027;-75
2022/11/30 05:56:18;;;;;;;138.75;39.90;;;;;;;-0.47;100.00;101421.25;5090089;28;20054;-79
2022/11/30 05:58:45;;;;;;;133.57;39.63;;;;;;;-0.36;100.00;101429.75;5093376;28;20042;-76
2022/11/30 06:01:23;;;;;;;147.93;44.17;;;;;;;-0.37;100.00;101433.75;5076687;28;20024;-78
2022/11/30 06:03:50;;;;;;;123.00;40.95;;;;;;;-0.37;100.00;101431.75;5077310;28;20036;-77
2022/11/30 06:06:16;;;;;;;131.95;39.60;;;;;;;-0.39;100.00;101436.16;5092703;28;20024;-77
2022/11/30 06:08:43;;;;;;;139.88;42.08;;;;;;;-0.37;100.00;101440.19;5092604;28;20051;-75
2022/11/30 06:11:09;;;;;;;132.20;41.10;;;;;;;-0.41;100.00;101439.34;5075988;28;20036;-77
2022/11/30 06:13:34;;;;;;;122.72;38.55;;;;;;;-0.43;100.00;101436.16;5093937;28;20384;-77
2022/11/30 06:16:01;;;;;;;128.55;42.22;;;;;;;-0.41;100.00;101439.34;5076251;28;20051;-78
2022/11/30 06:18:27;;;;;;;120.93;38.65;;;;;;;-0.37;100.00;101439.38;5094045;28;20077;-78
2022/11/30 06:20:52;;;;;;;140.20;40.28;;;;;;;-0.40;100.00;101443.78;5093963;28;20397;-77
2022/11/30 06:23:33;;;;;;;129.23;39.40;;;;;;;-0.42;100.00;101445.38;5093660;28;20493;-74
2022/11/30 06:26:07;;;;;;;147.05;41.35;;;;;;;-0.43;100.00;101450.19;5074935;28;20023;-74
2022/11/30 06:28:33;;;;;;;140.80;42.95;;;;;;;-0.34;100.00;101444.22;5092864;28;20027;-73
2022/11/30 06:31:07;;;;;;;136.88;42.63;;;;;;;-0.42;100.00;101448.19;5092700;28;20439;-72
2022/11/30 06:33:33;;;;;;;127.10;40.05;;;;;;;-0.42;100.00;101451.78;5093746;28;20480;-73
2022/11/30 06:36:00;;;;;;;126.90;41.15;;;;;;;-0.42;100.00;101451.00;5092604;28;20020;-73
2022/11/30 06:38:39;;;;;;;129.02;39.42;;;;;;;-0.37;100.00;101459.03;5094197;28;20065;-73
2022/11/30 06:41:20;;;;;;;124.90;38.97;;;;;;;-0.32;100.00;101464.28;5093976;28;20028;-72
2022/11/30 06:43:47;;;;;;;124.05;35.67;;;;;;;-0.29;100.00;101460.69;5093490;28;20441;-73
2022/11/30 06:46:14;;;;;;;103.55;34.75;;;;;;;-0.30;100.00;101473.13;5093659;28;20024;-74
2022/11/30 06:48:41;;;;;;;122.60;38.28;;;;;;;-0.28;100.00;101471.56;5093315;28;20036;-74
2022/11/30 06:51:07;;;;;;;115.60;36.35;;;;;;;-0.25;100.00;101475.56;5092094;28;20111;-74
2022/11/30 06:53:43;;;;;;;121.38;37.65;;;;;;;-0.26;100.00;101468.34;5092634;28;20035;-73
2022/11/30 06:56:10;;;;;;;122.25;39.65;;;;;;;-0.28;100.00;101474.38;5092186;28;20020;-73
2022/11/30 06:58:38;;;;;;;116.55;39.08;;;;;;;-0.27;100.00;101473.16;5093052;28;20047;-73
2022/11/30 07:01:11;;;;;;;130.70;40.28;;;;;;;-0.22;100.00;101483.19;5092297;28;20507;-73
2022/11/30 07:03:38;;;;;;;111.65;37.85;;;;;;;-0.23;100.00;101476.00;5093606;28;20032;-73
2022/11/30 07:06:09;;;;;;;113.78;36.45;;;;;;;-0.21;100.00;101484.00;5092270;28;20556;-73
2022/11/30 07:08:37;;;;;;;121.55;37.97;;;;;;;-0.26;100.00;101479.56;5091912;28;20059;-73
2022/11/30 07:11:03;;;;;;;107.30;37.10;;;;;;;-0.23;100.00;101478.81;5080322;28;20077;-74
2022/11/30 07:13:28;;;;;;;117.03;37.38;;;;;;;-0.28;100.00;101479.97;5095592;28;20047;-73
2022/11/30 07:15:54;;;;;;;112.50;36.40;;;;;;;-0.26;100.00;101471.16;5095352;28;20389;-74
2022/11/30 07:18:20;;;;;;;115.28;39.10;;;;;;;-0.24;100.00;101476.38;5095439;28;20089;-74
2022/11/30 07:20:46;;;;;;;123.80;38.15;;;;;;;-0.25;100.00;101475.56;5096891;28;20027;-71
2022/11/30 07:26:11;;;;;;;127.82;42.40;;;;;;;-0.14;100.00;101489.69;5095480;28;20113;-73
2022/11/30 07:28:39;;;;;;;129.48;40.15;;;;;;;-0.04;100.00;101489.78;5095696;28;20036;-72
2022/11/30 07:31:27;;;;;;;120.05;36.55;;;;;;;-0.02;100.00;101489.34;5095556;28;20040;-71
2022/11/30 07:33:54;;;;;;;107.82;35.15;;;;;;;0.02;100.00;101493.03;5096286;28;20060;-73
2022/11/30 07:36:24;;;;;;;102.72;36.75;;;;;;;-0.04;100.00;101489.78;5078983;28;20488;-72
2022/11/30 07:38:50;;;;;;;103.90;36.03;;;;;;;-0.03;100.00;101497.00;5061419;28;20031;-74
2022/11/30 07:41:17;;;;;;;101.35;33.83;;;;;;;-0.08;100.00;101493.75;5079247;28;20035;-74
2022/11/30 07:43:43;;;;;;;103.80;37.53;;;;;;;-0.10;100.00;101493.34;5095457;28;20040;-72
2022/11/30 07:46:15;;;;;;;106.90;35.20;;;;;;;-0.10;100.00;101501.75;5096719;28;20031;-73
2022/11/30 07:48:42;;;;;;;114.35;36.95;;;;;;;-0.04;100.00;101505.81;5096895;28;20028;-73
2022/11/30 07:51:12;;;;;;;111.75;37.33;;;;;;;-0.05;100.00;101496.59;5095325;28;20439;-73
2022/11/30 07:53:37;;;;;;;105.50;36.65;;;;;;;-0.01;100.00;101499.41;5076308;28;20096;-73
2022/11/30 07:56:11;;;;;;;108.65;34.67;;;;;;;-0.05;100.00;101496.59;5093122;28;20031;-72
2022/11/30 07:58:37;;;;;;;103.32;36.47;;;;;;;-0.04;100.00;101501.00;5093107;28;20023;-74
2022/11/30 08:01:04;;;;;;;108.80;36.65;;;;;;;-0.03;100.00;101501.81;5092925;28;20031;-74
2022/11/30 08:03:31;;;;;;;110.25;37.85;;;;;;;-0.02;100.00;101504.22;5094399;28;20032;-74
2022/11/30 08:06:07;;;;;;;118.90;39.75;;;;;;;0.02;100.00;101504.25;5092962;28;20446;-74
2022/11/30 08:08:38;;;;;;;116.00;39.42;;;;;;;0.06;100.00;101497.47;5092720;28;20082;-73
2022/11/30 08:11:04;;;;;;;110.32;38.97;;;;;;;0.12;100.00;101503.53;5093853;28;20097;-73
2022/11/30 08:13:30;;;;;;;109.65;37.00;;;;;;;0.18;100.00;101497.13;5093884;28;20071;-72
2022/11/30 08:16:00;;;;;;;99.22;35.05;;;;;;;0.24;100.00;101511.63;5094117;28;20062;-73
2022/11/30 08:18:25;;;;;;;118.40;37.25;;;;;;;0.25;100.00;101507.59;5093951;28;20062;-74
2022/11/30 08:21:02;;;;;;;108.75;35.63;;;;;;;0.25;100.00;101504.00;5094553;28;20047;-73
2022/11/30 08:23:31;;;;;;;104.95;35.10;;;;;;;0.26;100.00;101503.59;5094195;28;20469;-72
2022/11/30 08:26:05;;;;;;;118.28;36.63;;;;;;;0.31;100.00;101511.66;5094776;28;20118;-73
2022/11/30 08:28:31;;;;;;;98.22;36.30;;;;;;;0.32;100.00;101502.00;5094692;28;20111;-74
2022/11/30 08:31:05;;;;;;;91.63;34.22;;;;;;;0.33;100.00;101498.00;5094737;28;20024;-73
2022/11/30 08:33:31;;;;;;;101.20;34.70;;;;;;;0.35;100.00;101506.88;5096331;28;20032;-74
2022/11/30 08:36:06;;;;;;;102.25;37.80;;;;;;;0.38;100.00;101503.25;5077583;28;20027;-74
2022/11/30 08:38:32;;;;;;;93.38;34.65;;;;;;;0.29;100.00;101497.19;5094075;28;20024;-75
2022/11/30 08:40:58;;;;;;;99.63;34.83;;;;;;;0.34;100.00;101507.25;5096064;28;20081;-74
2022/11/30 08:43:23;;;;;;;104.15;34.72;;;;;;;0.37;100.00;101498.03;5094243;28;20036;-74
2022/11/30 08:45:50;;;;;;;100.38;35.85;;;;;;;0.31;100.00;101506.03;5095839;28;20380;-72
2022/11/30 08:48:17;;;;;;;107.25;33.47;;;;;;;0.32;100.00;101506.84;5095710;28;20141;-73
2022/11/30 08:50:44;;;;;;;97.20;32.30;;;;;;;0.31;100.00;101513.66;5096007;28;20036;-72
2022/11/30 08:53:10;;;;;;;94.80;33.05;;;;;;;0.30;100.00;101510.06;5094050;28;20034;-73
2022/11/30 08:55:36;;;;;;;91.88;35.42;;;;;;;0.26;100.00;101509.22;5094127;28;20115;-74
2022/11/30 08:58:04;;;;;;;93.05;33.17;;;;;;;0.26;100.00;101520.47;5095487;28;20146;-73
2022/11/30 09:00:30;;;;;;;99.55;32.00;;;;;;;0.24;100.00;101517.22;5093401;28;20032;-73
2022/11/30 09:03:02;;;;;;;97.45;33.90;;;;;;;0.27;100.00;101526.91;5095267;28;20071;-74
2022/11/30 09:05:29;;;;;;;;;;;;;;;0.32;100.00;101527.31;5095829;28;20032;-74
2022/11/30 09:07:54;;;;;;;93.50;31.73;;;;;;;0.35;100.00;101522.91;5095326;28;19908;-74
2022/11/30 09:10:20;;;;;;;94.68;33.55;;;;;;;0.30;100.00;101506.44;5095320;28;20076;-75
2022/11/30 09:12:45;;;;;;;98.43;32.47;;;;;;;0.37;100.00;101521.31;5094434;28;20022;-75
2022/11/30 09:15:12;;;;;;;90.88;31.92;;;;;;;0.42;100.00;101522.94;5095152;28;20043;-74
2022/11/30 09:17:38;;;;;;;93.82;32.42;;;;;;;0.39;100.00;101506.88;5095214;28;20024;-76
2022/11/30 09:20:04;;;;;;;98.60;33.78;;;;;;;0.38;100.00;101522.13;5095073;28;20039;-73
2022/11/30 09:22:31;;;;;;;100.35;35.45;;;;;;;0.40;100.00;101514.13;5094832;28;20020;-75
2022/11/30 09:24:57;;;;;;;92.93;31.23;;;;;;;0.33;100.00;101511.25;5095518;28;20023;-73
2022/11/30 09:27:29;;;;;;;109.93;34.85;;;;;;;0.43;100.00;101518.94;5094657;28;20043;-74
2022/11/30 09:29:57;;;;;;;92.70;33.60;;;;;;;0.48;100.00;101521.38;5077727;28;20024;-75
2022/11/30 09:32:23;;;;;;;91.35;31.23;;;;;;;0.53;100.00;101515.38;5094794;28;20023;-75
2022/11/30 09:34:49;;;;;;;92.05;33.30;;;;;;;0.54;100.00;101515.00;5093206;28;20039;-75
2022/11/30 09:37:15;;;;;;;101.55;33.88;;;;;;;0.64;100.00;101519.06;5092577;28;20031;-75
2022/11/30 09:39:41;;;;;;;94.55;32.65;;;;;;;0.67;100.00;101521.06;5095026;28;20020;-74
2022/11/30 09:42:13;;;;;;;94.53;31.55;;;;;;;0.68;100.00;101510.63;5093128;28;20427;-74
2022/11/30 09:45:27;;;;;;;94.03;32.97;;;;;;;0.66;100.00;101519.47;5091444;28;20024;-74
2022/11/30 09:48:19;;;;;;;89.57;32.15;;;;;;;0.69;100.00;101527.09;5094001;28;20032;-74
2022/11/30 09:50:52;;;;;;;93.88;31.70;;;;;;;0.76;100.00;101520.72;5091361;28;20042;-74
2022/11/30 09:53:22;;;;;;;103.15;34.47;;;;;;;0.75;100.00;101525.53;5095419;28;20087;-75
2022/11/30 09:55:50;;;;;;;106.18;36.30;;;;;;;0.75;100.00;101530.34;5097216;28;20115;-74
2022/11/30 09:58:39;;;;;;;95.82;35.42;;;;;;;0.76;100.00;101531.97;5095202;28;20083;-76
2022/11/30 10:01:14;;;;;;;102.28;33.08;;;;;;;0.76;100.00;101531.97;5095352;28;20047;-74
2022/11/30 10:03:42;;;;;;;107.15;34.53;;;;;;;0.79;100.00;101534.78;5076836;28;20044;-75
2022/11/30 10:06:42;;;;;;;103.25;36.67;;;;;;;0.79;100.00;101539.59;5094071;28;20102;-75
2022/11/30 10:09:25;;;;;;;98.05;34.70;;;;;;;0.80;100.00;101532.78;5043345;28;20609;-76
2022/11/30 10:12:32;;;;;;;105.93;37.65;;;;;;;0.77;100.00;101530.75;5095161;28;20059;-75
2022/11/30 10:15:13;;;;;;;86.78;31.90;;;;;;;0.80;100.00;101533.59;5096898;28;20024;-74
2022/11/30 10:18:17;;;;;;;96.00;32.53;;;;;;;0.84;100.00;101527.97;5096085;28;20048;-75
2022/11/30 10:21:11;;;;;;;95.45;30.90;;;;;;;0.86;100.00;101520.72;5104331;28;20031;-74
2022/11/30 10:23:59;;;;;;;96.15;34.40;;;;;;;0.84;100.00;101523.16;5096088;28;20050;-74
2022/11/30 10:26:38;;;;;;;103.60;35.55;;;;;;;0.82;100.00;101524.72;5092733;28;20063;-74
2022/11/30 10:29:39;;;;;;;89.78;34.35;;;;;;;0.81;100.00;101521.13;5083111;28;20051;-73
2022/11/30 10:32:26;;;;;;;100.30;34.15;;;;;;;0.88;100.00;101523.97;5085673;28;20036;-73
2022/11/30 10:34:54;;;;;;;91.90;33.40;;;;;;;0.96;100.00;101519.19;5092462;28;20024;-73
2022/11/30 10:37:33;;;;;;;88.75;32.60;;;;;;;1.05;100.00;101511.16;5096024;28;20067;-74
2022/11/30 10:40:07;;;;;;;97.57;34.13;;;;;;;1.04;100.00;101512.38;5092830;28;20036;-73
2022/11/30 10:43:03;;;;;;;82.85;30.83;;;;;;;1.12;100.00;101513.16;5094012;28;20103;-73
2022/11/30 10:45:32;;;;;;;108.10;35.85;;;;;;;1.13;100.00;101514.78;5088698;28;20036;-73
2022/11/30 10:48:14;;;;;;;108.85;35.50;;;;;;;1.13;100.00;101523.22;5075689;28;20028;-73
2022/11/30 10:50:41;;;;;;;98.22;32.95;;;;;;;1.15;100.00;101523.66;5090729;28;20020;-73
2022/11/30 10:53:09;;;;;;;87.20;33.67;;;;;;;1.04;100.00;101513.16;5075827;28;20449;-73
2022/11/30 10:55:49;;;;;;;100.30;33.78;;;;;;;1.03;100.00;101508.75;5076539;28;20085;-75
2022/11/30 10:58:26;;;;;;;89.80;31.42;;;;;;;1.06;100.00;101512.75;5078525;28;20085;-74
2022/11/30 11:01:03;;;;;;;88.90;33.45;;;;;;;1.07;100.00;101525.63;5098633;28;20088;-76
2022/11/30 11:03:30;;;;;;;94.57;32.95;;;;;;;1.02;100.00;101521.19;5103612;28;20020;-77
2022/11/30 11:06:03;;;;;;;93.30;33.35;;;;;;;0.92;100.00;101521.16;5093715;28;20032;-77
2022/11/30 11:08:29;;;;;;;96.00;34.88;;;;;;;0.98;100.00;101525.19;5093367;28;20044;-76
2022/11/30 11:10:55;;;;;;;88.13;34.20;;;;;;;0.98;100.00;101528.00;5093324;28;20040;-77
2022/11/30 11:13:41;;;;;;;88.28;32.85;;;;;;;0.95;100.00;101529.63;5093389;28;20107;-77